Time,TemperatureF,DewpointF,PressureIn,WindDirection,WindDirectionDegrees,WindSpeedMPH,WindSpeedGustMPH,Humidity,HourlyPrecipIn,Conditions,Clouds,dailyrainin,SolarRadiationWatts/m^2,SoftwareType,DateUTC
2013-07-01 00:01:00,50.0,49.0,-100.00,West,264,0.0,0.0,98,0.00,,,0.00,0.000000,,2013-07-01 05:01:00,
2013-07-01 00:22:00,50.0,49.0,-100.00,West,264,0.0,0.0,98,0.00,,,0.00,0.000000,,2013-07-01 05:22:00,
2013-07-01 00:33:00,50.0,49.0,-100.00,West,264,0.0,0.0,98,0.00,,,0.00,0.000000,,2013-07-01 05:33:00,
2013-07-01 00:42:00,50.0,49.0,-100.00,West,264,0.0,0.0,98,0.00,,,0.00,0.000000,,2013-07-01 05:42:00,
2013-07-01 00:52:00,50.0,49.0,-100.00,West,264,0.0,0.0,98,0.00,,,0.00,0.000000,,2013-07-01 05:52:00,
2013-07-01 01:01:00,49.0,49.0,-100.00,West,261,0.0,0.0,99,0.00,,,0.00,0.000000,,2013-07-01 06:01:00,
2013-07-01 01:24:00,49.0,49.0,-100.00,West,261,0.0,0.0,99,0.00,,,0.00,0.000000,,2013-07-01 06:24:00,
2013-07-01 01:34:00,49.0,49.0,-100.00,West,261,0.0,0.0,99,0.00,,,0.00,0.000000,,2013-07-01 06:34:00,
2013-07-01 01:43:00,49.0,49.0,-100.00,West,261,0.0,0.0,99,0.00,,,0.00,0.000000,,2013-07-01 06:43:00,
2013-07-01 01:53:00,49.0,49.0,-100.00,West,261,0.0,0.0,99,0.00,,,0.00,0.000000,,2013-07-01 06:53:00,
2013-07-01 02:01:00,47.0,47.0,-100.00,West,264,0.0,0.0,99,0.00,,,0.00,0.000000,,2013-07-01 07:01:00,
2013-07-01 02:22:00,47.0,47.0,-100.00,West,264,0.0,0.0,99,0.00,,,0.00,0.000000,,2013-07-01 07:22:00,
2013-07-01 02:33:00,47.0,47.0,-100.00,West,264,0.0,0.0,99,0.00,,,0.00,0.000000,,2013-07-01 07:33:00,
2013-07-01 02:43:00,47.0,47.0,-100.00,West,264,0.0,0.0,99,0.00,,,0.00,0.000000,,2013-07-01 07:43:00,
2013-07-01 02:53:00,47.0,47.0,-100.00,West,264,0.0,0.0,99,0.00,,,0.00,0.000000,,2013-07-01 07:53:00,
2013-07-01 03:01:00,46.0,46.0,-100.00,West,261,0.0,0.0,99,0.00,,,0.00,0.000000,,2013-07-01 08:01:00,
2013-07-01 03:22:00,46.0,46.0,-100.00,West,261,0.0,0.0,99,0.00,,,0.00,0.000000,,2013-07-01 08:22:00,
2013-07-01 03:33:00,46.0,46.0,-100.00,West,261,0.0,0.0,99,0.00,,,0.00,0.000000,,2013-07-01 08:33:00,
2013-07-01 03:43:00,46.0,46.0,-100.00,West,261,0.0,0.0,99,0.00,,,0.00,0.000000,,2013-07-01 08:43:00,
2013-07-01 03:52:00,46.0,46.0,-100.00,West,261,0.0,0.0,99,0.00,,,0.00,0.000000,,2013-07-01 08:52:00,
2013-07-01 04:01:00,45.0,45.0,-100.00,WSW,255,0.0,0.0,99,0.00,,,0.00,0.000000,,2013-07-01 09:01:00,
2013-07-01 04:22:00,45.0,45.0,-100.00,WSW,255,0.0,0.0,99,0.00,,,0.00,0.000000,,2013-07-01 09:22:00,
2013-07-01 04:34:00,45.0,45.0,-100.00,WSW,255,0.0,0.0,99,0.00,,,0.00,0.000000,,2013-07-01 09:34:00,
2013-07-01 04:43:00,45.0,45.0,-100.00,WSW,255,0.0,0.0,99,0.00,,,0.00,0.000000,,2013-07-01 09:43:00,
2013-07-01 04:53:00,45.0,45.0,-100.00,WSW,255,0.0,0.0,99,0.00,,,0.00,0.000000,,2013-07-01 09:53:00,
2013-07-01 05:01:00,44.0,44.0,-100.00,West,279,0.0,2.0,99,0.00,,,0.00,0.000000,,2013-07-01 10:01:00,
2013-07-01 05:22:00,44.0,44.0,-100.00,West,279,0.0,2.0,99,0.00,,,0.00,0.000000,,2013-07-01 10:22:00,
2013-07-01 05:33:00,44.0,44.0,-100.00,West,279,0.0,2.0,99,0.00,,,0.00,0.000000,,2013-07-01 10:33:00,
2013-07-01 05:43:00,44.0,44.0,-100.00,West,279,0.0,2.0,99,0.00,,,0.00,0.000000,,2013-07-01 10:43:00,
2013-07-01 05:52:00,44.0,44.0,-100.00,West,279,0.0,2.0,99,0.00,,,0.00,0.000000,,2013-07-01 10:52:00,
2013-07-01 06:01:00,46.0,46.0,-100.00,West,260,0.0,2.0,99,0.00,,,0.00,24.000000,,2013-07-01 11:01:00,
2013-07-01 06:22:00,46.0,46.0,-100.00,West,260,0.0,2.0,99,0.00,,,0.00,24.000000,,2013-07-01 11:22:00,
2013-07-01 06:33:00,46.0,46.0,-100.00,West,260,0.0,2.0,99,0.00,,,0.00,24.000000,,2013-07-01 11:33:00,
2013-07-01 06:43:00,46.0,46.0,-100.00,West,260,0.0,2.0,99,0.00,,,0.00,24.000000,,2013-07-01 11:43:00,
2013-07-01 06:52:00,46.0,46.0,-100.00,West,260,0.0,2.0,99,0.00,,,0.00,24.000000,,2013-07-01 11:52:00,
2013-07-01 07:01:00,53.0,50.0,-100.00,SW,236,2.0,2.0,90,0.00,,,0.00,148.000000,,2013-07-01 12:01:00,
2013-07-01 07:22:00,53.0,50.0,-100.00,SW,236,2.0,2.0,90,0.00,,,0.00,148.000000,,2013-07-01 12:22:00,
2013-07-01 07:33:00,53.0,50.0,-100.00,SW,236,2.0,2.0,90,0.00,,,0.00,148.000000,,2013-07-01 12:33:00,
2013-07-01 07:43:00,53.0,50.0,-100.00,SW,236,2.0,2.0,90,0.00,,,0.00,148.000000,,2013-07-01 12:43:00,
2013-07-01 07:53:00,53.0,50.0,-100.00,SW,236,2.0,2.0,90,0.00,,,0.00,148.000000,,2013-07-01 12:53:00,
2013-07-01 08:01:00,63.0,54.0,-100.00,SW,217,2.0,3.0,72,0.00,,,0.00,323.000000,,2013-07-01 13:01:00,
2013-07-01 08:23:00,63.0,54.0,-100.00,SW,217,2.0,3.0,72,0.00,,,0.00,323.000000,,2013-07-01 13:23:00,
2013-07-01 08:33:00,63.0,54.0,-100.00,SW,217,2.0,3.0,72,0.00,,,0.00,323.000000,,2013-07-01 13:33:00,
2013-07-01 08:43:00,63.0,54.0,-100.00,SW,217,2.0,3.0,72,0.00,,,0.00,323.000000,,2013-07-01 13:43:00,
2013-07-01 08:53:00,63.0,54.0,-100.00,SW,217,2.0,3.0,72,0.00,,,0.00,323.000000,,2013-07-01 13:53:00,
2013-07-01 09:01:00,73.0,55.0,-100.00,East,84,4.0,6.0,53,0.00,,,-99.99,522.000000,,2013-07-01 14:01:00,
2013-07-01 09:34:00,73.0,55.0,-100.00,East,84,4.0,6.0,53,0.00,,,-99.99,522.000000,,2013-07-01 14:34:00,
2013-07-01 09:43:00,73.0,55.0,-100.00,East,84,4.0,6.0,53,0.00,,,-99.99,522.000000,,2013-07-01 14:43:00,
2013-07-01 09:53:00,73.0,55.0,-100.00,East,84,4.0,6.0,53,0.00,,,-99.99,522.000000,,2013-07-01 14:53:00,
2013-07-01 10:01:00,74.0,53.0,-100.00,ENE,74,5.0,13.0,48,0.00,,,0.00,698.000000,,2013-07-01 15:01:00,
2013-07-01 10:23:00,74.0,53.0,-100.00,ENE,74,5.0,13.0,48,0.00,,,0.00,698.000000,,2013-07-01 15:23:00,
2013-07-01 10:34:00,74.0,53.0,-100.00,ENE,74,5.0,13.0,48,0.00,,,0.00,698.000000,,2013-07-01 15:34:00,
2013-07-01 10:43:00,74.0,53.0,-100.00,ENE,74,5.0,13.0,48,0.00,,,0.00,698.000000,,2013-07-01 15:43:00,
2013-07-01 10:53:00,74.0,53.0,-100.00,ENE,74,5.0,13.0,48,0.00,,,0.00,698.000000,,2013-07-01 15:53:00,
2013-07-01 11:01:00,76.0,52.0,-100.00,ENE,72,7.0,13.0,44,0.00,,,0.00,855.000000,,2013-07-01 16:01:00,
2013-07-01 11:22:00,76.0,52.0,-100.00,ENE,72,7.0,13.0,44,0.00,,,0.00,855.000000,,2013-07-01 16:22:00,
2013-07-01 11:33:00,76.0,52.0,-100.00,ENE,72,7.0,13.0,44,0.00,,,0.00,855.000000,,2013-07-01 16:33:00,
2013-07-01 11:44:00,76.0,52.0,-100.00,ENE,72,7.0,13.0,44,0.00,,,0.00,855.000000,,2013-07-01 16:44:00,
2013-07-01 11:53:00,76.0,52.0,-100.00,ENE,72,7.0,13.0,44,0.00,,,0.00,855.000000,,2013-07-01 16:53:00,
2013-07-01 12:01:00,77.0,53.0,-100.00,NE,37,6.0,14.0,44,0.00,,,0.00,966.000000,,2013-07-01 17:01:00,
2013-07-01 12:23:00,77.0,53.0,-100.00,NE,37,6.0,14.0,44,0.00,,,0.00,966.000000,,2013-07-01 17:23:00,
2013-07-01 12:34:00,77.0,53.0,-100.00,NE,37,6.0,14.0,44,0.00,,,0.00,966.000000,,2013-07-01 17:34:00,
2013-07-01 12:43:00,77.0,53.0,-100.00,NE,37,6.0,14.0,44,0.00,,,0.00,966.000000,,2013-07-01 17:43:00,
2013-07-01 12:53:00,77.0,53.0,-100.00,NE,37,6.0,14.0,44,0.00,,,0.00,966.000000,,2013-07-01 17:53:00,
2013-07-01 13:01:00,75.0,51.0,-100.00,ENE,77,8.0,14.0,43,0.00,,,0.00,954.000000,,2013-07-01 18:01:00,
2013-07-01 13:22:00,75.0,51.0,-100.00,ENE,77,8.0,14.0,43,0.00,,,0.00,954.000000,,2013-07-01 18:22:00,
2013-07-01 13:33:00,75.0,51.0,-100.00,ENE,77,8.0,14.0,43,0.00,,,0.00,954.000000,,2013-07-01 18:33:00,
2013-07-01 13:44:00,75.0,51.0,-100.00,ENE,77,8.0,14.0,43,0.00,,,0.00,954.000000,,2013-07-01 18:44:00,
2013-07-01 13:53:00,75.0,51.0,-100.00,ENE,77,8.0,14.0,43,0.00,,,0.00,954.000000,,2013-07-01 18:53:00,
2013-07-01 14:01:00,75.0,53.0,-100.00,East,83,7.0,15.0,46,0.00,,,0.00,807.000000,,2013-07-01 19:01:00,
2013-07-01 14:22:00,75.0,53.0,-100.00,East,83,7.0,15.0,46,0.00,,,0.00,807.000000,,2013-07-01 19:22:00,
2013-07-01 14:34:00,75.0,53.0,-100.00,East,83,7.0,15.0,46,0.00,,,0.00,807.000000,,2013-07-01 19:34:00,
2013-07-01 14:44:00,75.0,53.0,-100.00,East,83,7.0,15.0,46,0.00,,,0.00,807.000000,,2013-07-01 19:44:00,
2013-07-01 14:53:00,75.0,53.0,-100.00,East,83,7.0,15.0,46,0.00,,,0.00,807.000000,,2013-07-01 19:53:00,
2013-07-01 15:01:00,75.0,50.0,-100.00,NE,38,6.0,13.0,41,0.00,,,0.00,744.000000,,2013-07-01 20:01:00,
2013-07-01 15:22:00,75.0,50.0,-100.00,NE,38,6.0,13.0,41,0.00,,,0.00,744.000000,,2013-07-01 20:22:00,
2013-07-01 15:34:00,75.0,50.0,-100.00,NE,38,6.0,13.0,41,0.00,,,0.00,744.000000,,2013-07-01 20:34:00,
2013-07-01 15:43:00,75.0,50.0,-100.00,NE,38,6.0,13.0,41,0.00,,,0.00,744.000000,,2013-07-01 20:43:00,
2013-07-01 15:52:00,75.0,50.0,-100.00,NE,38,6.0,13.0,41,0.00,,,0.00,744.000000,,2013-07-01 20:52:00,
2013-07-01 16:01:00,75.0,48.0,-100.00,NE,39,6.0,12.0,38,0.00,,,0.00,809.000000,,2013-07-01 21:01:00,
2013-07-01 16:34:00,75.0,48.0,-100.00,NE,39,6.0,12.0,38,0.00,,,0.00,809.000000,,2013-07-01 21:34:00,
2013-07-01 16:44:00,75.0,48.0,-100.00,NE,39,6.0,12.0,38,0.00,,,0.00,809.000000,,2013-07-01 21:44:00,
2013-07-01 16:53:00,75.0,48.0,-100.00,NE,39,6.0,12.0,38,0.00,,,0.00,809.000000,,2013-07-01 21:53:00,
2013-07-01 17:01:00,75.0,45.0,-100.00,NE,42,5.0,12.0,34,0.00,,,0.00,765.000000,,2013-07-01 22:01:00,
2013-07-01 17:24:00,75.0,45.0,-100.00,NE,42,5.0,12.0,34,0.00,,,0.00,765.000000,,2013-07-01 22:24:00,
2013-07-01 17:33:00,75.0,45.0,-100.00,NE,42,5.0,12.0,34,0.00,,,0.00,765.000000,,2013-07-01 22:33:00,
2013-07-01 17:43:00,75.0,45.0,-100.00,NE,42,5.0,12.0,34,0.00,,,0.00,765.000000,,2013-07-01 22:43:00,
2013-07-01 17:53:00,75.0,45.0,-100.00,NE,42,5.0,12.0,34,0.00,,,0.00,765.000000,,2013-07-01 22:53:00,
2013-07-01 18:01:00,72.0,45.0,-100.00,NE,56,6.0,12.0,38,0.00,,,0.00,582.000000,,2013-07-01 23:01:00,
2013-07-01 18:22:00,72.0,45.0,-100.00,NE,56,6.0,12.0,38,0.00,,,0.00,582.000000,,2013-07-01 23:22:00,
2013-07-01 18:33:00,72.0,45.0,-100.00,NE,56,6.0,12.0,38,0.00,,,0.00,582.000000,,2013-07-01 23:33:00,
2013-07-01 18:44:00,72.0,45.0,-100.00,NE,56,6.0,12.0,38,0.00,,,0.00,582.000000,,2013-07-01 23:44:00,
2013-07-01 18:53:00,72.0,45.0,-100.00,NE,56,6.0,12.0,38,0.00,,,0.00,582.000000,,2013-07-01 23:53:00,
2013-07-01 19:01:00,70.0,49.0,-100.00,ENE,76,5.0,11.0,48,0.00,,,0.00,400.000000,,2013-07-02 00:01:00,
2013-07-01 19:22:00,70.0,49.0,-100.00,ENE,76,5.0,11.0,48,0.00,,,0.00,400.000000,,2013-07-02 00:22:00,
2013-07-01 19:34:00,70.0,49.0,-100.00,ENE,76,5.0,11.0,48,0.00,,,0.00,400.000000,,2013-07-02 00:34:00,
2013-07-01 19:43:00,70.0,49.0,-100.00,ENE,76,5.0,11.0,48,0.00,,,0.00,400.000000,,2013-07-02 00:43:00,
2013-07-01 19:53:00,70.0,49.0,-100.00,ENE,76,5.0,11.0,48,0.00,,,0.00,400.000000,,2013-07-02 00:53:00,
2013-07-01 20:01:00,66.0,49.0,-100.00,ENE,64,3.0,8.0,54,0.00,,,0.00,210.000000,,2013-07-02 01:01:00,
2013-07-01 20:22:00,66.0,49.0,-100.00,ENE,64,3.0,8.0,54,0.00,,,0.00,210.000000,,2013-07-02 01:22:00,
2013-07-01 20:33:00,66.0,49.0,-100.00,ENE,64,3.0,8.0,54,0.00,,,0.00,210.000000,,2013-07-02 01:33:00,
2013-07-01 20:43:00,66.0,49.0,-100.00,ENE,64,3.0,8.0,54,0.00,,,0.00,210.000000,,2013-07-02 01:43:00,
2013-07-01 20:53:00,66.0,49.0,-100.00,ENE,64,3.0,8.0,54,0.00,,,0.00,210.000000,,2013-07-02 01:53:00,
2013-07-01 21:01:00,55.0,51.0,-100.00,West,267,0.0,5.0,85,0.00,,,0.00,37.000000,,2013-07-02 02:01:00,
2013-07-01 21:22:00,55.0,51.0,-100.00,West,267,0.0,5.0,85,0.00,,,0.00,37.000000,,2013-07-02 02:22:00,
2013-07-01 21:34:00,55.0,51.0,-100.00,West,267,0.0,5.0,85,0.00,,,0.00,37.000000,,2013-07-02 02:34:00,
2013-07-01 21:43:00,55.0,51.0,-100.00,West,267,0.0,5.0,85,0.00,,,0.00,37.000000,,2013-07-02 02:43:00,
2013-07-01 21:53:00,55.0,51.0,-100.00,West,267,0.0,5.0,85,0.00,,,0.00,37.000000,,2013-07-02 02:53:00,
2013-07-01 22:01:00,49.0,48.0,-100.00,WNW,298,0.0,2.0,96,0.00,,,0.00,1.000000,,2013-07-02 03:01:00,
2013-07-01 22:24:00,49.0,48.0,-100.00,WNW,298,0.0,2.0,96,0.00,,,0.00,1.000000,,2013-07-02 03:24:00,
2013-07-01 22:33:00,49.0,48.0,-100.00,WNW,298,0.0,2.0,96,0.00,,,0.00,1.000000,,2013-07-02 03:33:00,
2013-07-01 22:43:00,49.0,48.0,-100.00,WNW,298,0.0,2.0,96,0.00,,,0.00,1.000000,,2013-07-02 03:43:00,
2013-07-01 22:53:00,49.0,48.0,-100.00,WNW,298,0.0,2.0,96,0.00,,,0.00,1.000000,,2013-07-02 03:53:00,
2013-07-01 23:01:00,45.0,44.0,-100.00,North,9,0.0,2.0,98,0.00,,,0.00,0.000000,,2013-07-02 04:01:00,
2013-07-01 23:32:00,45.0,44.0,-100.00,North,9,0.0,2.0,98,0.00,,,0.00,0.000000,,2013-07-02 04:32:00,
2013-07-01 23:42:00,45.0,44.0,-100.00,North,9,0.0,2.0,98,0.00,,,0.00,0.000000,,2013-07-02 04:42:00,
2013-07-01 23:53:00,45.0,44.0,-100.00,North,9,0.0,2.0,98,0.00,,,0.00,0.000000,,2013-07-02 04:53:00,